sensor_id;sensor_type;location;lat;lon;timestamp;pressure;altitude;pressure_sealevel;temperature;humidity
73551;BME280;61816;53.582;10.096;2023-04-09T00:01:08;54393.34;;;-144.73;100.00
73551;BME280;61816;53.582;10.096;2023-04-09T00:03:34;54440.53;;;-144.73;100.00
73551;BME280;61816;53.582;10.096;2023-04-09T00:05:59;54391.28;;;-144.73;100.00
73551;BME280;61816;53.582;10.096;2023-04-09T00:08:25;54415.91;;;-144.73;100.00
73551;BME280;61816;53.582;10.096;2023-04-09T00:10:51;54407.69;;;-144.73;100.00
73551;BME280;61816;53.582;10.096;2023-04-09T00:13:17;54383.06;;;-144.73;100.00
73551;BME280;61816;53.582;10.096;2023-04-09T00:15:43;54407.69;;;-144.73;100.00
73551;BME280;61816;53.582;10.096;2023-04-09T00:18:09;54374.84;;;-144.73;100.00
73551;BME280;61816;53.582;10.096;2023-04-09T00:20:34;54397.44;;;-144.73;100.00
73551;BME280;61816;53.582;10.096;2023-04-09T00:23:00;54424.13;;;-144.73;100.00
73551;BME280;61816;53.582;10.096;2023-04-09T00:25:25;54387.19;;;-144.73;100.00
73551;BME280;61816;53.582;10.096;2023-04-09T00:27:50;54428.22;;;-144.73;100.00
73551;BME280;61816;53.582;10.096;2023-04-09T00:30:16;54436.44;;;-144.73;100.00
73551;BME280;61816;53.582;10.096;2023-04-09T00:32:41;54424.13;;;-144.73;100.00
73551;BME280;61816;53.582;10.096;2023-04-09T00:35:07;54417.97;;;-144.73;100.00
73551;BME280;61816;53.582;10.096;2023-04-09T00:37:33;54420.00;;;-144.73;100.00
73551;BME280;61816;53.582;10.096;2023-04-09T00:40:03;54383.06;;;-144.73;100.00
73551;BME280;61816;53.582;10.096;2023-04-09T00:42:32;54407.69;;;-144.73;100.00
73551;BME280;61816;53.582;10.096;2023-04-09T00:44:58;54358.44;;;-144.73;100.00
73551;BME280;61816;53.582;10.096;2023-04-09T00:47:24;54409.75;;;-144.73;100.00
73551;BME280;61816;53.582;10.096;2023-04-09T00:49:50;54424.13;;;-144.73;100.00
73551;BME280;61816;53.582;10.096;2023-04-09T00:52:15;54411.81;;;-144.73;100.00
73551;BME280;61816;53.582;10.096;2023-04-09T00:54:41;54411.81;;;-144.73;100.00
73551;BME280;61816;53.582;10.096;2023-04-09T00:57:06;54411.81;;;-144.73;100.00
73551;BME280;61816;53.582;10.096;2023-04-09T00:59:31;54378.97;;;-144.73;100.00
73551;BME280;61816;53.582;10.096;2023-04-09T01:01:57;54426.16;;;-144.73;100.00
73551;BME280;61816;53.582;10.096;2023-04-09T01:04:23;54413.84;;;-144.73;100.00
73551;BME280;61816;53.582;10.096;2023-04-09T01:06:51;54411.81;;;-144.73;100.00
73551;BME280;61816;53.582;10.096;2023-04-09T01:09:27;54424.13;;;-144.73;100.00
73551;BME280;61816;53.582;10.096;2023-04-09T01:12:31;54383.06;;;-144.73;100.00
73551;BME280;61816;53.582;10.096;2023-04-09T01:15:05;54415.91;;;-144.73;100.00
73551;BME280;61816;53.582;10.096;2023-04-09T01:17:45;54424.13;;;-144.73;100.00
73551;BME280;61816;53.582;10.096;2023-04-09T01:20:22;54391.28;;;-144.73;100.00
73551;BME280;61816;53.582;10.096;2023-04-09T01:23:24;54395.38;;;-144.73;100.00
73551;BME280;61816;53.582;10.096;2023-04-09T01:28:42;54391.28;;;-144.73;100.00
73551;BME280;61816;53.582;10.096;2023-04-09T01:31:14;54420.00;;;-144.73;100.00
73551;BME280;61816;53.582;10.096;2023-04-09T01:33:43;54424.13;;;-144.73;100.00
73551;BME280;61816;53.582;10.096;2023-04-09T01:36:10;54409.75;;;-144.73;100.00
73551;BME280;61816;53.582;10.096;2023-04-09T01:38:39;54391.28;;;-144.73;100.00
73551;BME280;61816;53.582;10.096;2023-04-09T01:41:06;54391.28;;;-144.73;100.00
73551;BME280;61816;53.582;10.096;2023-04-09T01:43:33;54399.50;;;-144.73;100.00
73551;BME280;61816;53.582;10.096;2023-04-09T01:46:00;54395.38;;;-144.73;100.00
73551;BME280;61816;53.582;10.096;2023-04-09T01:48:28;54366.66;;;-144.73;100.00
73551;BME280;61816;53.582;10.096;2023-04-09T01:50:54;54424.13;;;-144.73;100.00
73551;BME280;61816;53.582;10.096;2023-04-09T01:53:20;54407.69;;;-144.73;100.00
73551;BME280;61816;53.582;10.096;2023-04-09T01:55:46;54399.50;;;-144.73;100.00
73551;BME280;61816;53.582;10.096;2023-04-09T01:58:12;54420.00;;;-144.73;100.00
73551;BME280;61816;53.582;10.096;2023-04-09T02:00:39;54399.50;;;-144.73;100.00
73551;BME280;61816;53.582;10.096;2023-04-09T02:03:13;54411.81;;;-144.73;100.00
73551;BME280;61816;53.582;10.096;2023-04-09T02:05:44;54395.38;;;-144.73;100.00
73551;BME280;61816;53.582;10.096;2023-04-09T02:08:12;54409.75;;;-144.73;100.00
73551;BME280;61816;53.582;10.096;2023-04-09T02:10:43;54424.13;;;-144.73;100.00
73551;BME280;61816;53.582;10.096;2023-04-09T02:13:18;54378.97;;;-144.73;100.00
73551;BME280;61816;53.582;10.096;2023-04-09T02:15:44;54407.69;;;-144.73;100.00
73551;BME280;61816;53.582;10.096;2023-04-09T02:18:27;54354.34;;;-144.73;100.00
73551;BME280;61816;53.582;10.096;2023-04-09T02:20:54;54422.06;;;-144.73;100.00
73551;BME280;61816;53.582;10.096;2023-04-09T02:23:20;54415.91;;;-144.73;100.00
73551;BME280;61816;53.582;10.096;2023-04-09T02:25:45;54407.69;;;-144.73;100.00
73551;BME280;61816;53.582;10.096;2023-04-09T02:28:11;54432.31;;;-144.73;100.00
73551;BME280;61816;53.582;10.096;2023-04-09T02:30:36;54440.53;;;-144.73;100.00
73551;BME280;61816;53.582;10.096;2023-04-09T02:33:01;54395.38;;;-144.73;100.00
73551;BME280;61816;53.582;10.096;2023-04-09T02:35:27;54411.81;;;-144.73;100.00
73551;BME280;61816;53.582;10.096;2023-04-09T02:37:52;54391.28;;;-144.73;100.00
73551;BME280;61816;53.582;10.096;2023-04-09T02:40:18;54420.00;;;-144.73;100.00
73551;BME280;61816;53.582;10.096;2023-04-09T02:42:43;54420.00;;;-144.73;100.00
73551;BME280;61816;53.582;10.096;2023-04-09T02:45:09;54407.69;;;-144.73;100.00
73551;BME280;61816;53.582;10.096;2023-04-09T02:47:34;54389.22;;;-144.73;100.00
73551;BME280;61816;53.582;10.096;2023-04-09T02:49:59;54420.00;;;-144.73;100.00
73551;BME280;61816;53.582;10.096;2023-04-09T02:52:25;54436.44;;;-144.73;100.00
73551;BME280;61816;53.582;10.096;2023-04-09T02:54:51;54383.06;;;-144.73;100.00
73551;BME280;61816;53.582;10.096;2023-04-09T02:57:17;54436.44;;;-144.73;100.00
73551;BME280;61816;53.582;10.096;2023-04-09T02:59:43;54434.38;;;-144.73;100.00
73551;BME280;61816;53.582;10.096;2023-04-09T03:02:08;54411.81;;;-144.73;100.00
73551;BME280;61816;53.582;10.096;2023-04-09T03:04:33;54422.06;;;-144.73;100.00
73551;BME280;61816;53.582;10.096;2023-04-09T03:06:59;54446.69;;;-144.73;100.00
73551;BME280;61816;53.582;10.096;2023-04-09T03:09:24;54428.22;;;-144.73;100.00
73551;BME280;61816;53.582;10.096;2023-04-09T03:11:49;54387.19;;;-144.73;100.00
73551;BME280;61816;53.582;10.096;2023-04-09T03:14:15;54420.00;;;-144.73;100.00
73551;BME280;61816;53.582;10.096;2023-04-09T03:16:40;54432.31;;;-144.73;100.00
73551;BME280;61816;53.582;10.096;2023-04-09T03:19:05;54426.16;;;-144.73;100.00
73551;BME280;61816;53.582;10.096;2023-04-09T03:21:31;54420.00;;;-144.73;100.00
73551;BME280;61816;53.582;10.096;2023-04-09T03:23:57;54387.19;;;-144.73;100.00
73551;BME280;61816;53.582;10.096;2023-04-09T03:26:22;54440.53;;;-144.73;100.00
73551;BME280;61816;53.582;10.096;2023-04-09T03:28:47;54432.31;;;-144.73;100.00
73551;BME280;61816;53.582;10.096;2023-04-09T03:31:13;54387.19;;;-144.73;100.00
73551;BME280;61816;53.582;10.096;2023-04-09T03:33:38;54399.50;;;-144.73;100.00
73551;BME280;61816;53.582;10.096;2023-04-09T03:36:04;54434.38;;;-144.73;100.00
73551;BME280;61816;53.582;10.096;2023-04-09T03:38:29;54420.00;;;-144.73;100.00
73551;BME280;61816;53.582;10.096;2023-04-09T03:40:55;54450.81;;;-144.73;100.00
73551;BME280;61816;53.582;10.096;2023-04-09T03:43:20;54420.00;;;-144.73;100.00
73551;BME280;61816;53.582;10.096;2023-04-09T03:45:46;54428.22;;;-144.73;100.00
73551;BME280;61816;53.582;10.096;2023-04-09T03:48:11;54432.31;;;-144.73;100.00
73551;BME280;61816;53.582;10.096;2023-04-09T03:50:38;54448.75;;;-144.73;100.00
73551;BME280;61816;53.582;10.096;2023-04-09T03:53:03;54411.81;;;-144.73;100.00
73551;BME280;61816;53.582;10.096;2023-04-09T03:55:29;54440.53;;;-144.73;100.00
73551;BME280;61816;53.582;10.096;2023-04-09T03:57:54;54411.81;;;-144.73;100.00
73551;BME280;61816;53.582;10.096;2023-04-09T04:00:20;54440.53;;;-144.73;100.00
73551;BME280;61816;53.582;10.096;2023-04-09T04:02:46;54407.69;;;-144.73;100.00
73551;BME280;61816;53.582;10.096;2023-04-09T04:05:11;54368.69;;;-144.73;100.00
73551;BME280;61816;53.582;10.096;2023-04-09T04:07:37;54473.38;;;-144.73;100.00
73551;BME280;61816;53.582;10.096;2023-04-09T04:10:06;54424.13;;;-144.73;100.00
73551;BME280;61816;53.582;10.096;2023-04-09T04:12:32;54415.91;;;-144.73;100.00
73551;BME280;61816;53.582;10.096;2023-04-09T04:14:57;54383.06;;;-144.73;100.00
73551;BME280;61816;53.582;10.096;2023-04-09T04:17:22;54420.00;;;-144.73;100.00
73551;BME280;61816;53.582;10.096;2023-04-09T04:19:48;54436.44;;;-144.73;100.00
73551;BME280;61816;53.582;10.096;2023-04-09T04:22:13;54424.13;;;-144.73;100.00
73551;BME280;61816;53.582;10.096;2023-04-09T04:24:38;54422.06;;;-144.73;100.00
73551;BME280;61816;53.582;10.096;2023-04-09T04:27:04;54456.97;;;-144.73;100.00
73551;BME280;61816;53.582;10.096;2023-04-09T04:29:29;54428.22;;;-144.73;100.00
73551;BME280;61816;53.582;10.096;2023-04-09T04:31:54;54407.69;;;-144.73;100.00
73551;BME280;61816;53.582;10.096;2023-04-09T04:34:20;54407.69;;;-144.73;100.00
73551;BME280;61816;53.582;10.096;2023-04-09T04:36:45;54440.53;;;-144.73;100.00
73551;BME280;61816;53.582;10.096;2023-04-09T04:39:10;54362.53;;;-144.73;100.00
73551;BME280;61816;53.582;10.096;2023-04-09T04:41:37;54407.69;;;-144.73;100.00
73551;BME280;61816;53.582;10.096;2023-04-09T04:44:02;54438.50;;;-144.73;100.00
73551;BME280;61816;53.582;10.096;2023-04-09T04:46:27;54424.13;;;-144.73;100.00
73551;BME280;61816;53.582;10.096;2023-04-09T04:48:53;54420.00;;;-144.73;100.00
73551;BME280;61816;53.582;10.096;2023-04-09T04:51:18;54420.00;;;-144.73;100.00
73551;BME280;61816;53.582;10.096;2023-04-09T04:53:43;54399.50;;;-144.73;100.00
73551;BME280;61816;53.582;10.096;2023-04-09T04:56:13;54374.84;;;-144.73;100.00
73551;BME280;61816;53.582;10.096;2023-04-09T04:58:38;54389.22;;;-144.73;100.00
73551;BME280;61816;53.582;10.096;2023-04-09T05:01:04;54409.75;;;-144.73;100.00
73551;BME280;61816;53.582;10.096;2023-04-09T05:03:29;54428.22;;;-144.73;100.00
73551;BME280;61816;53.582;10.096;2023-04-09T05:05:55;54440.53;;;-144.73;100.00
73551;BME280;61816;53.582;10.096;2023-04-09T05:08:20;54424.13;;;-144.73;100.00
73551;BME280;61816;53.582;10.096;2023-04-09T05:10:45;54424.13;;;-144.73;100.00
73551;BME280;61816;53.582;10.096;2023-04-09T05:13:11;54407.69;;;-144.73;100.00
73551;BME280;61816;53.582;10.096;2023-04-09T05:15:39;54399.50;;;-144.73;100.00
73551;BME280;61816;53.582;10.096;2023-04-09T05:18:05;54372.81;;;-144.73;100.00
73551;BME280;61816;53.582;10.096;2023-04-09T05:20:32;54389.22;;;-144.73;100.00
73551;BME280;61816;53.582;10.096;2023-04-09T05:22:58;54399.50;;;-144.73;100.00
73551;BME280;61816;53.582;10.096;2023-04-09T05:25:23;54440.53;;;-144.73;100.00
73551;BME280;61816;53.582;10.096;2023-04-09T05:27:48;54407.69;;;-144.73;100.00
73551;BME280;61816;53.582;10.096;2023-04-09T05:30:13;54364.59;;;-144.73;100.00
73551;BME280;61816;53.582;10.096;2023-04-09T05:32:39;54407.69;;;-144.73;100.00
73551;BME280;61816;53.582;10.096;2023-04-09T05:35:05;54448.75;;;-144.73;100.00
73551;BME280;61816;53.582;10.096;2023-04-09T05:37:30;54383.06;;;-144.73;100.00
73551;BME280;61816;53.582;10.096;2023-04-09T05:39:56;54399.50;;;-144.73;100.00
73551;BME280;61816;53.582;10.096;2023-04-09T05:42:21;54385.13;;;-144.73;100.00
73551;BME280;61816;53.582;10.096;2023-04-09T05:44:46;54430.28;;;-144.73;100.00
73551;BME280;61816;53.582;10.096;2023-04-09T05:47:12;54415.91;;;-144.73;100.00
73551;BME280;61816;53.582;10.096;2023-04-09T05:49:37;54391.28;;;-144.73;100.00
73551;BME280;61816;53.582;10.096;2023-04-09T05:52:02;54434.38;;;-144.73;100.00
73551;BME280;61816;53.582;10.096;2023-04-09T05:54:28;54448.75;;;-144.73;100.00
73551;BME280;61816;53.582;10.096;2023-04-09T05:56:53;54391.28;;;-144.73;100.00
73551;BME280;61816;53.582;10.096;2023-04-09T05:59:18;54440.53;;;-144.73;100.00
73551;BME280;61816;53.582;10.096;2023-04-09T06:01:44;54432.31;;;-144.73;100.00
73551;BME280;61816;53.582;10.096;2023-04-09T06:04:09;54407.69;;;-144.73;100.00
73551;BME280;61816;53.582;10.096;2023-04-09T06:06:37;54440.53;;;-144.73;100.00
73551;BME280;61816;53.582;10.096;2023-04-09T06:09:02;54424.13;;;-144.73;100.00
73551;BME280;61816;53.582;10.096;2023-04-09T06:11:28;54424.13;;;-144.73;100.00
73551;BME280;61816;53.582;10.096;2023-04-09T06:13:54;54407.69;;;-144.73;100.00
73551;BME280;61816;53.582;10.096;2023-04-09T06:16:19;54456.97;;;-144.73;100.00
73551;BME280;61816;53.582;10.096;2023-04-09T06:18:45;54420.00;;;-144.73;100.00
73551;BME280;61816;53.582;10.096;2023-04-09T06:21:11;54417.97;;;-144.73;100.00
73551;BME280;61816;53.582;10.096;2023-04-09T06:23:38;54430.28;;;-144.73;100.00
73551;BME280;61816;53.582;10.096;2023-04-09T06:26:04;54450.81;;;-144.73;100.00
73551;BME280;61816;53.582;10.096;2023-04-09T06:28:30;54428.22;;;-144.73;100.00
73551;BME280;61816;53.582;10.096;2023-04-09T06:30:56;54417.97;;;-144.73;100.00
73551;BME280;61816;53.582;10.096;2023-04-09T06:33:21;54448.75;;;-144.73;100.00
73551;BME280;61816;53.582;10.096;2023-04-09T06:35:47;54448.75;;;-144.73;100.00
73551;BME280;61816;53.582;10.096;2023-04-09T06:38:13;54442.59;;;-144.73;100.00
73551;BME280;61816;53.582;10.096;2023-04-09T06:40:39;54424.13;;;-144.73;100.00
73551;BME280;61816;53.582;10.096;2023-04-09T06:43:05;54409.75;;;-144.73;100.00
73551;BME280;61816;53.582;10.096;2023-04-09T06:45:31;54415.91;;;-144.73;100.00
73551;BME280;61816;53.582;10.096;2023-04-09T06:47:58;54438.50;;;-144.73;100.00
73551;BME280;61816;53.582;10.096;2023-04-09T06:50:23;54395.38;;;-144.73;100.00
73551;BME280;61816;53.582;10.096;2023-04-09T06:52:50;54407.69;;;-144.73;100.00
73551;BME280;61816;53.582;10.096;2023-04-09T06:55:16;54415.91;;;-144.73;100.00
73551;BME280;61816;53.582;10.096;2023-04-09T06:57:41;54407.69;;;-144.73;100.00
73551;BME280;61816;53.582;10.096;2023-04-09T07:00:07;54407.69;;;-144.73;100.00
73551;BME280;61816;53.582;10.096;2023-04-09T07:02:34;54436.44;;;-144.73;100.00
73551;BME280;61816;53.582;10.096;2023-04-09T07:04:59;54436.44;;;-144.73;100.00
73551;BME280;61816;53.582;10.096;2023-04-09T07:07:25;54446.69;;;-144.73;100.00
73551;BME280;61816;53.582;10.096;2023-04-09T07:09:51;54432.31;;;-144.73;100.00
73551;BME280;61816;53.582;10.096;2023-04-09T07:12:30;54444.66;;;-144.73;100.00
73551;BME280;61816;53.582;10.096;2023-04-09T07:15:03;54432.31;;;-144.73;100.00
73551;BME280;61816;53.582;10.096;2023-04-09T07:17:30;54428.22;;;-144.73;100.00
73551;BME280;61816;53.582;10.096;2023-04-09T07:19:55;54407.69;;;-144.73;100.00
73551;BME280;61816;53.582;10.096;2023-04-09T07:22:21;54432.31;;;-144.73;100.00
73551;BME280;61816;53.582;10.096;2023-04-09T07:24:47;54428.22;;;-144.73;100.00
73551;BME280;61816;53.582;10.096;2023-04-09T07:27:18;54428.22;;;-144.73;100.00
73551;BME280;61816;53.582;10.096;2023-04-09T07:29:44;54452.84;;;-144.73;100.00
73551;BME280;61816;53.582;10.096;2023-04-09T07:32:09;54436.44;;;-144.73;100.00
73551;BME280;61816;53.582;10.096;2023-04-09T07:34:35;54411.81;;;-144.73;100.00
73551;BME280;61816;53.582;10.096;2023-04-09T07:37:01;54395.38;;;-144.73;100.00
73551;BME280;61816;53.582;10.096;2023-04-09T07:39:27;54424.13;;;-144.73;100.00
73551;BME280;61816;53.582;10.096;2023-04-09T07:41:55;54432.31;;;-144.73;100.00
73551;BME280;61816;53.582;10.096;2023-04-09T07:44:21;54424.13;;;-144.73;100.00
73551;BME280;61816;53.582;10.096;2023-04-09T07:46:47;54473.38;;;-144.73;100.00
73551;BME280;61816;53.582;10.096;2023-04-09T07:49:12;54432.31;;;-144.73;100.00
73551;BME280;61816;53.582;10.096;2023-04-09T07:51:38;54440.53;;;-144.73;100.00
73551;BME280;61816;53.582;10.096;2023-04-09T07:54:03;54415.91;;;-144.73;100.00
73551;BME280;61816;53.582;10.096;2023-04-09T07:56:29;54424.13;;;-144.73;100.00
73551;BME280;61816;53.582;10.096;2023-04-09T07:58:54;54415.91;;;-144.73;100.00
73551;BME280;61816;53.582;10.096;2023-04-09T08:01:20;54456.97;;;-144.73;100.00
73551;BME280;61816;53.582;10.096;2023-04-09T08:03:49;54424.13;;;-144.73;100.00
73551;BME280;61816;53.582;10.096;2023-04-09T08:06:15;54452.84;;;-144.73;100.00
73551;BME280;61816;53.582;10.096;2023-04-09T08:08:41;54461.06;;;-144.73;100.00
73551;BME280;61816;53.582;10.096;2023-04-09T08:11:07;54428.22;;;-144.73;100.00
73551;BME280;61816;53.582;10.096;2023-04-09T08:13:32;54391.28;;;-144.73;100.00
73551;BME280;61816;53.582;10.096;2023-04-09T08:16:01;54424.13;;;-144.73;99.20
73551;BME280;61816;53.582;10.096;2023-04-09T08:18:26;54420.00;;;-144.73;98.83
73551;BME280;61816;53.582;10.096;2023-04-09T08:20:52;54465.16;;;-144.73;98.72
73551;BME280;61816;53.582;10.096;2023-04-09T08:23:17;54432.31;;;-144.73;98.13
73551;BME280;61816;53.582;10.096;2023-04-09T08:25:43;54407.69;;;-144.73;97.25
73551;BME280;61816;53.582;10.096;2023-04-09T08:28:08;54448.75;;;-144.73;96.23
73551;BME280;61816;53.582;10.096;2023-04-09T08:30:33;54465.16;;;-144.73;96.22
73551;BME280;61816;53.582;10.096;2023-04-09T08:33:02;54383.06;;;-144.73;96.68
73551;BME280;61816;53.582;10.096;2023-04-09T08:35:30;54407.69;;;-144.73;96.10
73551;BME280;61816;53.582;10.096;2023-04-09T08:37:56;54424.13;;;-144.73;94.63
73551;BME280;61816;53.582;10.096;2023-04-09T08:40:22;54436.44;;;-144.73;94.63
73551;BME280;61816;53.582;10.096;2023-04-09T08:42:53;54407.69;;;-144.73;94.13
73551;BME280;61816;53.582;10.096;2023-04-09T08:45:19;54391.28;;;-144.73;94.54
73551;BME280;61816;53.582;10.096;2023-04-09T08:47:47;54448.75;;;-144.73;94.14
73551;BME280;61816;53.582;10.096;2023-04-09T08:50:13;54417.97;;;-144.73;94.02
73551;BME280;61816;53.582;10.096;2023-04-09T08:52:39;54440.53;;;-144.73;93.50
73551;BME280;61816;53.582;10.096;2023-04-09T08:55:04;54432.31;;;-144.73;94.27
73551;BME280;61816;53.582;10.096;2023-04-09T08:57:36;54381.00;;;-144.73;92.60
73551;BME280;61816;53.582;10.096;2023-04-09T09:00:02;54456.97;;;-144.73;92.35
73551;BME280;61816;53.582;10.096;2023-04-09T09:02:27;54415.91;;;-144.73;92.97
73551;BME280;61816;53.582;10.096;2023-04-09T09:04:53;54395.38;;;-144.73;93.82
73551;BME280;61816;53.582;10.096;2023-04-09T09:07:23;54473.38;;;-144.73;93.64
73551;BME280;61816;53.582;10.096;2023-04-09T09:10:07;54469.28;;;-144.73;94.17
73551;BME280;61816;53.582;10.096;2023-04-09T09:12:40;54411.81;;;-144.73;93.16
73551;BME280;61816;53.582;10.096;2023-04-09T09:15:25;54436.44;;;-144.73;92.04
73551;BME280;61816;53.582;10.096;2023-04-09T09:17:55;54461.06;;;-144.73;91.22
73551;BME280;61816;53.582;10.096;2023-04-09T09:20:21;54407.69;;;-144.73;91.60
73551;BME280;61816;53.582;10.096;2023-04-09T09:22:52;54440.53;;;-144.73;92.18
73551;BME280;61816;53.582;10.096;2023-04-09T09:25:18;54469.28;;;-144.73;92.64
73551;BME280;61816;53.582;10.096;2023-04-09T09:27:47;54428.22;;;-144.73;90.99
73551;BME280;61816;53.582;10.096;2023-04-09T09:30:24;54452.84;;;-144.73;91.25
73551;BME280;61816;53.582;10.096;2023-04-09T09:32:51;54420.00;;;-144.73;90.35
73551;BME280;61816;53.582;10.096;2023-04-09T09:35:17;54456.97;;;-144.73;90.55
73551;BME280;61816;53.582;10.096;2023-04-09T09:37:42;54428.22;;;-144.73;91.19
73551;BME280;61816;53.582;10.096;2023-04-09T09:40:08;54440.53;;;-144.73;90.77
73551;BME280;61816;53.582;10.096;2023-04-09T09:42:34;54424.13;;;-144.73;89.83
73551;BME280;61816;53.582;10.096;2023-04-09T09:45:00;54448.75;;;-144.73;90.19
73551;BME280;61816;53.582;10.096;2023-04-09T09:47:27;54440.53;;;-144.73;90.22
73551;BME280;61816;53.582;10.096;2023-04-09T09:49:53;54415.91;;;-144.73;90.04
73551;BME280;61816;53.582;10.096;2023-04-09T09:52:23;54446.69;;;-144.73;89.95
73551;BME280;61816;53.582;10.096;2023-04-09T09:54:54;54434.38;;;-144.73;89.70
73551;BME280;61816;53.582;10.096;2023-04-09T09:57:20;54432.31;;;-144.73;88.19
73551;BME280;61816;53.582;10.096;2023-04-09T10:00:14;54436.44;;;-144.73;86.63
73551;BME280;61816;53.582;10.096;2023-04-09T10:02:47;54415.91;;;-144.73;86.29
73551;BME280;61816;53.582;10.096;2023-04-09T10:05:17;54432.31;;;-144.73;86.55
73551;BME280;61816;53.582;10.096;2023-04-09T10:07:43;54436.44;;;-144.73;86.25
73551;BME280;61816;53.582;10.096;2023-04-09T10:10:10;54456.97;;;-144.73;87.53
73551;BME280;61816;53.582;10.096;2023-04-09T10:12:36;54440.53;;;-144.73;86.61
73551;BME280;61816;53.582;10.096;2023-04-09T10:15:02;54420.00;;;-144.73;86.61
73551;BME280;61816;53.582;10.096;2023-04-09T10:17:30;54420.00;;;-144.73;86.46
73551;BME280;61816;53.582;10.096;2023-04-09T10:20:13;54391.28;;;-144.73;85.54
73551;BME280;61816;53.582;10.096;2023-04-09T10:22:43;54436.44;;;-144.73;86.76
73551;BME280;61816;53.582;10.096;2023-04-09T10:25:09;54426.16;;;-144.73;86.65
73551;BME280;61816;53.582;10.096;2023-04-09T10:27:35;54424.13;;;-144.73;87.89
73551;BME280;61816;53.582;10.096;2023-04-09T10:30:00;54448.75;;;-144.73;87.15
73551;BME280;61816;53.582;10.096;2023-04-09T10:32:26;54420.00;;;-144.73;86.71
73551;BME280;61816;53.582;10.096;2023-04-09T10:34:56;54448.75;;;-144.73;85.88
73551;BME280;61816;53.582;10.096;2023-04-09T10:37:23;54420.00;;;-144.73;85.87
73551;BME280;61816;53.582;10.096;2023-04-09T10:39:50;54452.84;;;-144.73;85.55
73551;BME280;61816;53.582;10.096;2023-04-09T10:42:29;54438.50;;;-144.73;84.28
73551;BME280;61816;53.582;10.096;2023-04-09T10:45:13;54459.00;;;-144.73;83.78
73551;BME280;61816;53.582;10.096;2023-04-09T10:47:40;54417.97;;;-144.73;83.33
73551;BME280;61816;53.582;10.096;2023-04-09T10:50:26;54420.00;;;-144.73;82.96
73551;BME280;61816;53.582;10.096;2023-04-09T10:52:53;54436.44;;;-144.73;82.19
73551;BME280;61816;53.582;10.096;2023-04-09T10:55:52;54461.06;;;-144.73;82.73
73551;BME280;61816;53.582;10.096;2023-04-09T10:58:18;54391.28;;;-144.73;82.67
73551;BME280;61816;53.582;10.096;2023-04-09T11:00:45;54415.91;;;-144.73;83.60
73551;BME280;61816;53.582;10.096;2023-04-09T11:06:02;54444.66;;;-144.73;82.13
73551;BME280;61816;53.582;10.096;2023-04-09T11:08:31;54452.84;;;-144.73;82.23
73551;BME280;61816;53.582;10.096;2023-04-09T11:10:57;54424.13;;;-144.73;82.06
73551;BME280;61816;53.582;10.096;2023-04-09T11:13:23;54440.53;;;-144.73;82.29
73551;BME280;61816;53.582;10.096;2023-04-09T11:15:49;54456.97;;;-144.73;81.04
73551;BME280;61816;53.582;10.096;2023-04-09T11:18:20;54461.06;;;-144.73;81.00
73551;BME280;61816;53.582;10.096;2023-04-09T11:20:46;54428.22;;;-144.73;81.46
73551;BME280;61816;53.582;10.096;2023-04-09T11:23:12;54415.91;;;-144.73;81.22
73551;BME280;61816;53.582;10.096;2023-04-09T11:25:38;54422.06;;;-144.73;80.86
73551;BME280;61816;53.582;10.096;2023-04-09T11:28:04;54436.44;;;-144.73;79.45
73551;BME280;61816;53.582;10.096;2023-04-09T11:30:30;54424.13;;;-144.73;79.29
73551;BME280;61816;53.582;10.096;2023-04-09T11:32:55;54436.44;;;-144.73;77.44
73551;BME280;61816;53.582;10.096;2023-04-09T11:35:21;54440.53;;;-144.73;77.81
73551;BME280;61816;53.582;10.096;2023-04-09T11:37:48;54391.28;;;-144.73;77.31
73551;BME280;61816;53.582;10.096;2023-04-09T11:40:16;54436.44;;;-144.73;77.91
73551;BME280;61816;53.582;10.096;2023-04-09T11:42:43;54485.69;;;-144.73;78.21
73551;BME280;61816;53.582;10.096;2023-04-09T11:45:09;54448.75;;;-144.73;77.80
73551;BME280;61816;53.582;10.096;2023-04-09T11:47:36;54424.13;;;-144.73;77.83
73551;BME280;61816;53.582;10.096;2023-04-09T11:50:02;54395.38;;;-144.73;76.59
73551;BME280;61816;53.582;10.096;2023-04-09T11:52:28;54432.31;;;-144.73;76.40
73551;BME280;61816;53.582;10.096;2023-04-09T11:54:59;54415.91;;;-144.73;77.36
73551;BME280;61816;53.582;10.096;2023-04-09T11:57:41;54473.38;;;-144.73;75.34
73551;BME280;61816;53.582;10.096;2023-04-09T12:00:14;54424.13;;;-144.73;73.38
73551;BME280;61816;53.582;10.096;2023-04-09T12:02:44;54395.38;;;-144.73;70.88
73551;BME280;61816;53.582;10.096;2023-04-09T12:05:20;54370.75;;;-144.73;69.30
73551;BME280;61816;53.582;10.096;2023-04-09T12:07:46;54438.50;;;-144.73;68.68
73551;BME280;61816;53.582;10.096;2023-04-09T12:10:11;54374.84;;;-144.73;68.86
73551;BME280;61816;53.582;10.096;2023-04-09T12:12:45;54407.69;;;-144.73;67.08
73551;BME280;61816;53.582;10.096;2023-04-09T12:15:21;54374.84;;;-144.73;68.86
73551;BME280;61816;53.582;10.096;2023-04-09T12:17:52;54436.44;;;-144.73;65.27
73551;BME280;61816;53.582;10.096;2023-04-09T12:20:38;54366.66;;;-144.73;63.42
73551;BME280;61816;53.582;10.096;2023-04-09T12:23:04;54378.97;;;-144.73;63.58
73551;BME280;61816;53.582;10.096;2023-04-09T12:25:33;54440.53;;;-144.73;61.79
73551;BME280;61816;53.582;10.096;2023-04-09T12:27:59;54362.53;;;-144.73;62.09
73551;BME280;61816;53.582;10.096;2023-04-09T12:30:26;54383.06;;;-144.73;61.91